createdAt,value
2023-04-23T00:02:13.043Z,2.60
2023-04-23T00:04:42.216Z,3.00
2023-04-23T00:07:11.425Z,3.20
2023-04-23T00:09:40.029Z,3.03
2023-04-23T00:12:09.127Z,3.20
2023-04-23T00:14:39.768Z,2.73
2023-04-23T00:17:08.493Z,2.50
2023-04-23T00:19:37.067Z,2.30
2023-04-23T00:22:06.183Z,2.57
2023-04-23T00:24:36.178Z,2.30
2023-04-23T00:27:04.797Z,2.47
2023-04-23T00:29:33.504Z,2.67
2023-04-23T00:32:03.825Z,2.20
2023-04-23T00:34:32.939Z,2.30
2023-04-23T00:37:05.717Z,2.53
2023-04-23T00:39:35.795Z,2.40
2023-04-23T00:42:10.568Z,2.77
2023-04-23T00:44:39.913Z,2.50
2023-04-23T00:47:10.236Z,2.20
2023-04-23T00:49:39.971Z,2.20
2023-04-23T00:52:08.602Z,2.10
2023-04-23T00:54:37.377Z,2.47
2023-04-23T00:57:07.918Z,2.53
2023-04-23T00:59:37.082Z,2.17
2023-04-23T01:02:05.991Z,2.13
2023-04-23T01:04:40.356Z,2.30
2023-04-23T01:07:12.545Z,2.43
2023-04-23T01:09:44.067Z,2.50
2023-04-23T01:12:15.924Z,2.47
2023-04-23T01:14:46.991Z,2.40
2023-04-23T01:17:18.716Z,2.43
2023-04-23T01:19:53.524Z,2.23
2023-04-23T01:22:26.525Z,2.60
2023-04-23T01:25:00.961Z,2.37
2023-04-23T01:27:34.530Z,2.17
2023-04-23T01:30:07.557Z,2.30
2023-04-23T01:32:38.853Z,2.17
2023-04-23T01:35:14.098Z,2.13
2023-04-23T01:37:50.099Z,2.23
2023-04-23T01:40:21.064Z,2.57
2023-04-23T01:42:52.574Z,2.47
2023-04-23T01:45:24.402Z,2.30
2023-04-23T01:47:55.313Z,2.60
2023-04-23T01:50:29.054Z,2.90
2023-04-23T01:53:02.202Z,2.70
2023-04-23T01:55:33.900Z,2.53
2023-04-23T01:58:07.483Z,2.70
2023-04-23T02:00:38.770Z,2.70
2023-04-23T02:03:10.301Z,2.80
2023-04-23T02:05:42.414Z,2.50
2023-04-23T02:08:14.329Z,2.87
2023-04-23T02:10:42.695Z,2.20
2023-04-23T02:13:10.930Z,2.30
2023-04-23T02:15:40.548Z,2.47
2023-04-23T02:18:09.079Z,2.60
2023-04-23T02:20:40.678Z,3.20
2023-04-23T02:23:09.789Z,2.43
2023-04-23T02:25:39.745Z,3.30
2023-04-23T02:28:08.634Z,3.17
2023-04-23T02:30:38.014Z,2.50
2023-04-23T02:33:07.023Z,2.70
2023-04-23T02:35:38.431Z,2.67
2023-04-23T02:38:07.211Z,2.50
2023-04-23T02:40:36.409Z,2.77
2023-04-23T02:43:06.596Z,2.57
2023-04-23T02:45:35.196Z,3.47
2023-04-23T02:48:05.353Z,2.80
2023-04-23T02:50:35.165Z,2.47
2023-04-23T02:53:04.051Z,2.70
2023-04-23T02:55:32.847Z,2.57
2023-04-23T02:58:02.234Z,2.50
2023-04-23T03:00:32.715Z,2.67
2023-04-23T03:03:00.744Z,2.60
2023-04-23T03:05:30.706Z,2.50
2023-04-23T03:07:59.577Z,2.20
2023-04-23T03:10:30.752Z,2.57
2023-04-23T03:12:59.402Z,2.50
2023-04-23T03:15:28.582Z,2.40
2023-04-23T03:17:59.190Z,2.40
2023-04-23T03:20:27.772Z,2.50
2023-04-23T03:22:56.779Z,2.90
2023-04-23T03:25:26.005Z,2.60
2023-04-23T03:27:54.604Z,2.93
2023-04-23T03:30:23.266Z,2.83
2023-04-23T03:32:52.444Z,3.00
2023-04-23T03:35:22.608Z,3.10
2023-04-23T03:37:51.199Z,2.60
2023-04-23T03:40:21.175Z,2.20
2023-04-23T03:42:49.471Z,2.20
2023-04-23T03:45:18.396Z,2.83
2023-04-23T03:47:47.041Z,2.63
2023-04-23T03:50:17.294Z,2.40
2023-04-23T03:52:47.303Z,2.73
2023-04-23T03:55:16.018Z,2.97
2023-04-23T03:57:45.933Z,2.00
2023-04-23T04:00:15.120Z,2.70
2023-04-23T04:02:43.916Z,2.70
2023-04-23T04:05:13.151Z,2.20
2023-04-23T04:07:42.370Z,2.53
2023-04-23T04:10:12.894Z,2.63
2023-04-23T04:12:42.073Z,2.60
2023-04-23T04:15:10.856Z,2.77
2023-04-23T04:17:39.470Z,2.80
2023-04-23T04:20:09.497Z,2.83
2023-04-23T04:22:38.407Z,2.57
2023-04-23T04:25:07.828Z,2.30
2023-04-23T04:27:39.067Z,2.50
2023-04-23T04:30:09.116Z,2.43
2023-04-23T04:32:38.870Z,2.47
2023-04-23T04:35:08.796Z,3.17
2023-04-23T04:37:37.853Z,2.27
2023-04-23T04:40:08.216Z,2.20
2023-04-23T04:42:39.006Z,2.60
2023-04-23T04:45:09.674Z,2.93
2023-04-23T04:47:38.551Z,2.73
2023-04-23T04:50:07.445Z,2.80
2023-04-23T04:52:36.943Z,2.90
2023-04-23T04:55:06.772Z,2.73
2023-04-23T04:57:36.444Z,2.60
2023-04-23T05:00:22.441Z,3.50
2023-04-23T05:02:52.317Z,3.23
2023-04-23T05:05:22.178Z,3.33
2023-04-23T05:07:51.140Z,3.03
2023-04-23T05:10:20.637Z,2.80
2023-04-23T05:12:51.638Z,3.40
2023-04-23T05:15:22.270Z,3.23
2023-04-23T05:17:53.572Z,2.70
2023-04-23T05:20:23.092Z,3.23
2023-04-23T05:22:52.392Z,3.10
2023-04-23T05:25:21.461Z,3.27
2023-04-23T05:27:50.882Z,3.27
2023-04-23T05:30:19.982Z,3.23
2023-04-23T05:32:50.541Z,3.50
2023-04-23T05:35:19.615Z,3.30
2023-04-23T05:37:48.655Z,2.70
2023-04-23T05:40:17.778Z,3.30
2023-04-23T05:42:46.933Z,3.40
2023-04-23T05:45:15.979Z,3.57
2023-04-23T05:47:45.115Z,3.13
2023-04-23T05:50:15.960Z,3.80
2023-04-23T05:52:44.986Z,3.30
2023-04-23T05:55:15.730Z,3.47
2023-04-23T05:57:44.940Z,3.47
2023-04-23T06:00:14.248Z,3.27
2023-04-23T06:02:43.797Z,3.30
2023-04-23T06:05:16.904Z,3.63
2023-04-23T06:07:48.016Z,3.00
2023-04-23T06:10:17.178Z,3.33
2023-04-23T06:12:46.321Z,3.63
2023-04-23T06:15:15.593Z,3.50
2023-04-23T06:17:45.077Z,3.90
2023-04-23T06:20:14.346Z,3.57
2023-04-23T06:22:43.352Z,3.87
2023-04-23T06:25:13.819Z,4.03
2023-04-23T06:27:43.069Z,4.37
2023-04-23T06:30:12.336Z,4.20
2023-04-23T06:32:41.419Z,3.83
2023-04-23T06:35:10.606Z,3.80
2023-04-23T06:37:39.537Z,3.93
2023-04-23T06:40:09.264Z,4.00
2023-04-23T06:42:39.861Z,3.93
2023-04-23T06:45:09.392Z,4.13
2023-04-23T06:47:38.404Z,4.57
2023-04-23T06:50:08.285Z,4.33
2023-04-23T06:52:37.246Z,4.50
2023-04-23T06:55:06.282Z,4.90
2023-04-23T06:57:35.852Z,4.77
2023-04-23T07:00:08.088Z,4.70
2023-04-23T07:02:37.275Z,4.30
2023-04-23T07:05:06.730Z,4.57
2023-04-23T07:07:37.351Z,5.17
2023-04-23T07:10:07.010Z,4.87
2023-04-23T07:12:36.365Z,4.93
2023-04-23T07:15:06.869Z,4.70
2023-04-23T07:17:35.963Z,4.67
2023-04-23T07:20:06.546Z,4.30
2023-04-23T07:22:35.639Z,4.57
2023-04-23T07:25:05.687Z,4.50
2023-04-23T07:27:34.425Z,4.23
2023-04-23T07:30:03.216Z,4.60
2023-04-23T07:32:33.130Z,4.63
2023-04-23T07:35:02.437Z,4.67
2023-04-23T07:37:31.202Z,4.00
2023-04-23T07:40:00.820Z,4.77
2023-04-23T07:42:29.633Z,4.63
2023-04-23T07:44:58.510Z,5.17
2023-04-23T07:47:27.633Z,4.67
2023-04-23T07:49:57.745Z,5.03
2023-04-23T07:52:26.730Z,3.87
2023-04-23T07:54:55.930Z,3.80
2023-04-23T07:57:25.005Z,4.07
2023-04-23T07:59:53.760Z,3.87
2023-04-23T08:02:25.942Z,3.43
2023-04-23T08:04:55.443Z,3.97
2023-04-23T08:07:26.058Z,4.13
2023-04-23T08:09:54.967Z,4.07
2023-04-23T08:12:23.990Z,3.60
2023-04-23T08:14:52.661Z,4.40
2023-04-23T08:17:21.458Z,4.10
2023-04-23T08:19:50.463Z,4.53
2023-04-23T08:22:20.396Z,4.43
2023-04-23T08:24:51.045Z,4.40
2023-04-23T08:27:18.943Z,3.83
2023-04-23T08:29:47.270Z,3.50
2023-04-23T08:32:16.078Z,3.43
2023-04-23T08:34:44.872Z,4.13
2023-04-23T08:37:23.256Z,3.80
2023-04-23T08:40:00.232Z,3.80
2023-04-23T08:42:32.915Z,3.77
2023-04-23T08:45:01.603Z,3.00
2023-04-23T08:47:31.920Z,3.13
2023-04-23T08:50:01.302Z,3.33
2023-04-23T08:52:32.791Z,2.63
2023-04-23T08:55:04.379Z,2.97
2023-04-23T08:57:33.412Z,3.07
2023-04-23T09:00:05.604Z,2.50
2023-04-23T09:02:34.985Z,2.20
2023-04-23T09:05:05.473Z,2.30
2023-04-23T09:07:35.692Z,2.57
2023-04-23T09:10:06.426Z,2.87
2023-04-23T09:12:35.587Z,2.90
2023-04-23T09:15:10.181Z,2.27
2023-04-23T09:17:40.792Z,2.50
2023-04-23T09:20:10.856Z,3.27
2023-04-23T09:22:45.274Z,2.43
2023-04-23T09:25:19.287Z,2.60
2023-04-23T09:27:48.350Z,2.80
2023-04-23T09:30:17.217Z,2.43
2023-04-23T09:32:46.974Z,2.63
2023-04-23T09:35:19.510Z,2.80
2023-04-23T09:37:53.296Z,2.83
2023-04-23T09:40:25.704Z,2.70
2023-04-23T09:42:54.934Z,3.13
2023-04-23T09:45:25.767Z,2.90
2023-04-23T09:47:55.665Z,2.70
2023-04-23T09:50:34.093Z,2.97
2023-04-23T09:53:02.621Z,2.80
2023-04-23T09:55:37.556Z,2.27
2023-04-23T09:58:06.230Z,2.60
2023-04-23T10:00:36.352Z,2.77
2023-04-23T10:03:05.307Z,2.70
2023-04-23T10:05:45.307Z,2.50
2023-04-23T10:08:22.711Z,2.60
2023-04-23T10:11:05.890Z,2.67
2023-04-23T10:13:38.833Z,2.60
2023-04-23T10:16:21.503Z,2.60
2023-04-23T10:18:53.989Z,2.30
2023-04-23T10:21:22.987Z,2.77
2023-04-23T10:23:53.781Z,2.53
2023-04-23T10:26:24.750Z,2.80
2023-04-23T10:28:56.221Z,2.27
2023-04-23T10:31:25.690Z,2.30
2023-04-23T10:33:59.142Z,2.10
2023-04-23T10:36:29.105Z,2.67
2023-04-23T10:39:01.407Z,2.50
2023-04-23T10:41:36.569Z,2.30
2023-04-23T10:44:05.784Z,2.63
2023-04-23T10:46:37.098Z,2.83
2023-04-23T10:49:08.370Z,2.50
2023-04-23T10:54:10.187Z,2.10
2023-04-23T10:56:41.720Z,2.57
2023-04-23T10:59:10.493Z,2.10
2023-04-23T11:01:39.489Z,2.97
2023-04-23T11:04:25.232Z,2.00
2023-04-23T11:06:57.524Z,2.00
2023-04-23T11:09:39.319Z,2.40
2023-04-23T11:12:10.500Z,2.47
2023-04-23T11:14:43.521Z,1.83
2023-04-23T11:17:13.391Z,1.97
2023-04-23T11:19:42.611Z,2.30
2023-04-23T11:22:15.020Z,2.27
2023-04-23T11:24:44.688Z,2.23
2023-04-23T11:27:16.353Z,2.23
2023-04-23T11:29:46.781Z,2.20
2023-04-23T11:32:17.319Z,2.00
2023-04-23T11:34:46.976Z,1.97
2023-04-23T11:37:16.335Z,2.27
2023-04-23T11:39:45.869Z,2.40
2023-04-23T11:42:15.947Z,2.20
2023-04-23T11:44:45.028Z,2.20
2023-04-23T11:47:15.240Z,2.20
2023-04-23T11:49:45.945Z,1.93
2023-04-23T11:52:16.092Z,1.90
2023-04-23T11:54:43.972Z,2.10
2023-04-23T11:57:11.920Z,2.60
2023-04-23T11:59:41.326Z,2.13
2023-04-23T12:02:09.433Z,2.20
2023-04-23T12:04:40.461Z,2.30
2023-04-23T12:07:23.079Z,2.50
2023-04-23T12:09:54.022Z,2.43
2023-04-23T12:12:21.944Z,2.30
2023-04-23T12:14:51.562Z,2.20
2023-04-23T12:17:19.740Z,1.90
2023-04-23T12:19:47.566Z,2.10
2023-04-23T12:22:15.413Z,2.13
2023-04-23T12:24:52.209Z,1.77
2023-04-23T12:27:21.955Z,1.90
2023-04-23T12:30:00.119Z,2.20
2023-04-23T12:32:28.076Z,2.40
2023-04-23T12:34:56.793Z,2.73
2023-04-23T12:37:30.579Z,2.20
2023-04-23T12:39:59.589Z,2.60
2023-04-23T12:42:27.721Z,2.17
2023-04-23T12:45:07.218Z,2.40
2023-04-23T12:47:35.235Z,2.13
2023-04-23T12:50:05.227Z,2.30
2023-04-23T12:52:33.149Z,2.37
2023-04-23T12:55:01.448Z,2.40
2023-04-23T12:57:29.372Z,2.20
2023-04-23T12:59:58.630Z,2.10
2023-04-23T13:02:26.932Z,2.03
2023-04-23T13:05:00.545Z,2.33
2023-04-23T13:07:28.904Z,2.50
2023-04-23T13:09:57.198Z,2.53
2023-04-23T13:12:25.124Z,2.70
2023-04-23T13:14:54.399Z,2.77
2023-04-23T13:17:26.108Z,2.23
2023-04-23T13:19:53.995Z,2.80
2023-04-23T13:22:23.383Z,2.80
2023-04-23T13:24:51.488Z,2.30
2023-04-23T13:27:19.332Z,2.10
2023-04-23T13:29:47.282Z,2.53
2023-04-23T13:32:16.763Z,2.83
2023-04-23T13:34:45.984Z,2.43
2023-04-23T13:37:13.795Z,2.50
2023-04-23T13:39:42.005Z,2.50
2023-04-23T13:42:10.305Z,2.30
2023-04-23T13:44:38.544Z,2.70
2023-04-23T13:47:06.582Z,2.53
2023-04-23T13:49:34.493Z,2.47
2023-04-23T13:52:06.964Z,2.30
2023-04-23T13:54:36.176Z,2.57
2023-04-23T13:57:04.203Z,3.20
2023-04-23T13:59:32.193Z,2.40
2023-04-23T14:02:00.064Z,2.87
2023-04-23T14:04:28.408Z,2.90
2023-04-23T14:06:56.346Z,2.53
2023-04-23T14:09:25.648Z,3.10
2023-04-23T14:11:53.623Z,2.87
2023-04-23T14:14:21.511Z,2.37
2023-04-23T14:16:49.327Z,2.70
2023-04-23T14:19:17.229Z,2.80
2023-04-23T14:21:45.918Z,2.60
2023-04-23T14:24:19.528Z,2.93
2023-04-23T14:26:49.976Z,2.53
2023-04-23T14:29:30.504Z,2.50
2023-04-23T14:31:58.331Z,2.50
2023-04-23T14:34:26.334Z,2.50
2023-04-23T14:36:54.349Z,3.07
2023-04-23T14:39:24.333Z,2.67
2023-04-23T14:41:54.326Z,3.30
2023-04-23T14:44:23.308Z,2.70
2023-04-23T14:46:51.430Z,3.00
2023-04-23T14:49:20.699Z,2.80
2023-04-23T14:51:50.689Z,2.70
2023-04-23T14:54:18.622Z,3.23
2023-04-23T14:56:46.574Z,4.50
2023-04-23T14:59:15.904Z,2.83
2023-04-23T15:01:43.944Z,2.53
2023-04-23T15:04:12.472Z,2.43
2023-04-23T15:06:41.477Z,2.60
2023-04-23T15:09:09.341Z,2.20
2023-04-23T15:11:38.719Z,2.50
2023-04-23T15:14:09.824Z,2.87
2023-04-23T15:19:10.097Z,2.47
2023-04-23T15:21:38.884Z,2.37
2023-04-23T15:24:07.759Z,2.80
2023-04-23T15:26:36.471Z,2.70
2023-04-23T15:29:05.082Z,2.80
2023-04-23T15:31:33.078Z,2.53
2023-04-23T15:34:05.904Z,2.30
2023-04-23T15:36:35.429Z,2.60
2023-04-23T15:39:03.273Z,2.43
2023-04-23T15:41:32.840Z,2.80
2023-04-23T15:44:00.686Z,2.40
2023-04-23T15:46:28.789Z,2.57
2023-04-23T15:48:56.629Z,4.77
2023-04-23T15:51:25.839Z,2.97
2023-04-23T15:53:53.780Z,2.37
2023-04-23T15:56:21.946Z,2.30
2023-04-23T15:58:50.326Z,2.73
2023-04-23T16:01:18.325Z,2.70
2023-04-23T16:03:53.776Z,2.37
2023-04-23T16:06:31.796Z,2.60
2023-04-23T16:08:59.766Z,2.40
2023-04-23T16:11:28.484Z,2.43
2023-04-23T16:13:56.974Z,3.20
2023-04-23T16:16:25.254Z,2.77
2023-04-23T16:18:53.456Z,2.67
2023-04-23T16:21:21.661Z,2.40
2023-04-23T16:23:51.884Z,2.90
2023-04-23T16:26:19.701Z,3.30
2023-04-23T16:28:52.359Z,2.73
2023-04-23T16:31:24.352Z,4.13
2023-04-23T16:33:52.363Z,3.70
2023-04-23T16:36:20.200Z,3.83
2023-04-23T16:38:49.457Z,3.43
2023-04-23T16:41:19.674Z,3.87
2023-04-23T16:43:48.470Z,2.97
2023-04-23T16:46:16.738Z,2.50
2023-04-23T16:48:45.972Z,2.87
2023-04-23T16:51:14.443Z,2.73
2023-04-23T16:53:42.326Z,2.73
2023-04-23T16:56:10.394Z,2.40
2023-04-23T16:58:39.598Z,2.90
2023-04-23T17:01:07.424Z,2.53
2023-04-23T17:03:36.562Z,2.70
2023-04-23T17:06:12.197Z,3.20
2023-04-23T17:08:40.675Z,3.20
2023-04-23T17:11:08.635Z,3.10
2023-04-23T17:13:36.506Z,2.20
2023-04-23T17:16:05.841Z,2.20
2023-04-23T17:18:33.660Z,3.60
2023-04-23T17:21:01.446Z,2.93
2023-04-23T17:23:29.457Z,2.60
2023-04-23T17:25:57.346Z,2.77
2023-04-23T17:28:25.220Z,2.80
2023-04-23T17:30:55.759Z,2.60
2023-04-23T17:33:25.533Z,2.70
2023-04-23T17:35:55.132Z,2.40
2023-04-23T17:38:24.606Z,2.47
2023-04-23T17:40:53.406Z,2.20
2023-04-23T17:43:21.862Z,2.63
2023-04-23T17:45:50.713Z,2.40
2023-04-23T17:48:19.684Z,2.30
2023-04-23T17:50:54.329Z,2.50
2023-04-23T17:53:22.540Z,2.70
2023-04-23T17:55:51.337Z,2.87
2023-04-23T17:58:21.543Z,2.80
2023-04-23T18:00:50.236Z,3.13
2023-04-23T18:03:20.395Z,2.87
2023-04-23T18:05:48.984Z,3.33
2023-04-23T18:08:19.533Z,3.40
2023-04-23T18:10:48.960Z,2.80
2023-04-23T18:13:17.047Z,3.20
2023-04-23T18:15:50.133Z,2.70
2023-04-23T18:18:19.071Z,3.40
2023-04-23T18:20:47.671Z,3.03
2023-04-23T18:23:21.046Z,3.40
2023-04-23T18:25:51.422Z,3.30
2023-04-23T18:28:19.737Z,3.30
2023-04-23T18:30:48.000Z,3.23
2023-04-23T18:33:26.614Z,3.70
2023-04-23T18:35:59.399Z,3.10
2023-04-23T18:38:32.708Z,3.20
2023-04-23T18:41:04.475Z,3.70
2023-04-23T18:43:34.046Z,4.07
2023-04-23T18:46:02.720Z,3.57
2023-04-23T18:48:52.281Z,3.60
2023-04-23T18:51:23.458Z,3.80
2023-04-23T18:53:54.651Z,3.80
2023-04-23T18:56:25.164Z,4.10
2023-04-23T18:58:54.026Z,4.50
2023-04-23T19:01:24.015Z,4.23
2023-04-23T19:03:53.169Z,2.43
2023-04-23T19:06:24.051Z,1.83
2023-04-23T19:08:53.302Z,1.50
2023-04-23T19:11:22.495Z,1.50
2023-04-23T19:13:52.492Z,1.70
2023-04-23T19:16:21.638Z,1.23
2023-04-23T19:18:51.612Z,1.67
2023-04-23T19:21:21.350Z,1.30
2023-04-23T19:23:53.972Z,1.60
2023-04-23T19:26:23.269Z,1.37
2023-04-23T19:28:54.109Z,1.90
2023-04-23T19:31:23.327Z,1.33
2023-04-23T19:33:52.550Z,1.77
2023-04-23T19:36:22.016Z,1.77
2023-04-23T19:38:52.379Z,1.80
2023-04-23T19:41:22.281Z,1.93
2023-04-23T19:43:52.400Z,1.63
2023-04-23T19:46:23.017Z,1.60
2023-04-23T19:48:52.441Z,1.50
2023-04-23T19:51:22.072Z,1.70
2023-04-23T19:53:51.571Z,1.80
2023-04-23T19:56:42.270Z,1.70
2023-04-23T19:59:15.016Z,1.83
2023-04-23T20:01:50.773Z,1.87
2023-04-23T20:04:21.869Z,1.47
2023-04-23T20:06:51.129Z,1.80
2023-04-23T20:09:21.793Z,2.53
2023-04-23T20:11:51.643Z,2.20
2023-04-23T20:14:22.399Z,2.37
2023-04-23T20:16:58.004Z,2.33
2023-04-23T20:19:30.998Z,2.23
2023-04-23T20:22:21.607Z,2.80
2023-04-23T20:24:53.577Z,3.07
2023-04-23T20:27:23.615Z,3.33
2023-04-23T20:29:54.817Z,2.00
2023-04-23T20:32:26.441Z,2.73
2023-04-23T20:34:58.276Z,2.43
2023-04-23T20:37:28.816Z,1.90
2023-04-23T20:40:00.195Z,2.37
2023-04-23T20:42:32.572Z,2.37
2023-04-23T20:45:02.660Z,2.50
2023-04-23T20:47:34.604Z,2.10
2023-04-23T20:50:05.183Z,2.10
2023-04-23T20:52:34.950Z,2.30
2023-04-23T20:55:12.634Z,2.27
2023-04-23T20:57:43.634Z,2.33
2023-04-23T21:00:14.486Z,2.00
2023-04-23T21:02:46.732Z,2.30
2023-04-23T21:05:17.355Z,2.10
2023-04-23T21:07:47.287Z,2.33
2023-04-23T21:10:24.539Z,2.20
2023-04-23T21:15:52.971Z,2.10
2023-04-23T21:18:26.162Z,2.23
2023-04-23T21:20:56.809Z,2.13
2023-04-23T21:26:10.388Z,2.23
2023-04-23T21:28:40.594Z,1.97
2023-04-23T21:31:13.311Z,2.17
2023-04-23T21:33:45.228Z,2.30
2023-04-23T21:36:15.376Z,2.00
2023-04-23T21:38:44.659Z,2.33
2023-04-23T21:41:14.329Z,2.13
2023-04-23T21:43:47.158Z,1.73
2023-04-23T21:46:16.909Z,1.97
2023-04-23T21:48:53.674Z,1.80
2023-04-23T21:51:25.255Z,2.10
2023-04-23T21:53:55.053Z,1.90
2023-04-23T21:56:24.827Z,2.00
2023-04-23T21:58:55.228Z,2.00
2023-04-23T22:01:24.919Z,1.70
2023-04-23T22:03:56.743Z,1.63
2023-04-23T22:06:27.387Z,2.20
2023-04-23T22:08:57.589Z,1.90
2023-04-23T22:11:27.203Z,1.80
2023-04-23T22:13:55.744Z,1.90
2023-04-23T22:16:28.681Z,1.80
2023-04-23T22:19:01.709Z,1.80
2023-04-23T22:21:31.338Z,2.23
2023-04-23T22:24:03.414Z,2.10
2023-04-23T22:26:34.430Z,1.63
2023-04-23T22:29:04.266Z,2.10
2023-04-23T22:31:34.328Z,1.77
2023-04-23T22:34:05.650Z,1.97
2023-04-23T22:36:35.740Z,2.03
2023-04-23T22:39:05.904Z,1.60
2023-04-23T22:41:39.091Z,1.70
2023-04-23T22:44:12.026Z,1.77
2023-04-23T22:46:41.793Z,1.70
2023-04-23T22:49:14.589Z,1.80
2023-04-23T22:51:44.339Z,1.50
2023-04-23T22:54:14.666Z,1.67
2023-04-23T22:56:44.757Z,1.57
2023-04-23T22:59:15.674Z,1.40
2023-04-23T23:01:45.312Z,1.70
2023-04-23T23:04:16.503Z,1.57
2023-04-23T23:06:46.446Z,1.40
2023-04-23T23:09:16.085Z,1.37
2023-04-23T23:11:45.714Z,1.30
2023-04-23T23:14:16.948Z,1.40
2023-04-23T23:16:46.553Z,0.97
2023-04-23T23:19:17.905Z,1.40
2023-04-23T23:21:46.490Z,1.03
2023-04-23T23:24:15.030Z,1.03
2023-04-23T23:26:44.994Z,1.17
2023-04-23T23:29:14.819Z,1.10
2023-04-23T23:31:44.966Z,1.23
2023-04-23T23:34:15.277Z,1.00
2023-04-23T23:36:48.102Z,1.10
2023-04-23T23:39:19.707Z,1.53
2023-04-23T23:41:49.412Z,1.40
2023-04-23T23:44:19.167Z,1.10
2023-04-23T23:46:48.974Z,1.40
2023-04-23T23:49:19.839Z,1.17
2023-04-23T23:51:53.779Z,0.90
2023-04-23T23:54:22.901Z,1.20
2023-04-23T23:56:52.634Z,1.20
2023-04-23T23:59:22.301Z,1.30
